Weather at Richard Toll Airport

Public forecast

Using degrees Celsius for public forecast. Weather courtesy of forecast.io.

Closest aviation weather report (METAR) to Richard Toll Airport

Report is more than 6 hours old.

Closest report is Podor Airport, 42.3 nm (78.4 km) ENE.

2022/11/14 15:00 (retrieved 2 years ago)

GOSP 141500Z 28002KT CAVOK 38/15 Q1010

Closest aviation forecast (TAF) to Richard Toll Airport

Forecast is more than 12 hours old.

Closest forecast is Saint Louis Airport, 51.9 nm (96.1 km) WSW.

2023/02/22 18:51 (retrieved 1 year ago)

TAF GOSS 221700Z 2218/2318 34010KT 8000 NSC